createdAt,value
2023-07-15T00:01:37.717Z,1.60
2023-07-15T00:04:13.093Z,1.70
2023-07-15T00:06:41.565Z,1.70
2023-07-15T00:09:09.619Z,1.70
2023-07-15T00:11:40.717Z,2.00
2023-07-15T00:14:19.339Z,1.80
2023-07-15T00:16:47.175Z,1.90
2023-07-15T00:19:15.055Z,1.80
2023-07-15T00:21:43.625Z,1.70
2023-07-15T00:24:11.326Z,1.70
2023-07-15T00:26:40.854Z,1.80
2023-07-15T00:29:09.615Z,1.20
2023-07-15T00:31:37.647Z,1.60
2023-07-15T00:34:06.366Z,1.80
2023-07-15T00:36:35.331Z,1.80
2023-07-15T00:39:05.872Z,1.60
2023-07-15T00:41:37.163Z,1.70
2023-07-15T00:44:06.594Z,1.90
2023-07-15T00:47:00.187Z,1.90
2023-07-15T00:49:33.130Z,2.00
2023-07-15T00:52:06.206Z,1.90
2023-07-15T00:54:36.702Z,2.30
2023-07-15T00:57:07.687Z,2.80
2023-07-15T00:59:41.660Z,2.30
2023-07-15T01:02:13.415Z,2.40
2023-07-15T01:04:41.156Z,2.00
2023-07-15T01:07:09.151Z,1.90
2023-07-15T01:09:38.195Z,2.20
2023-07-15T01:12:06.547Z,2.00
2023-07-15T01:14:34.394Z,2.10
2023-07-15T01:17:04.351Z,2.10
2023-07-15T01:19:32.736Z,1.40
2023-07-15T01:22:01.211Z,1.30
2023-07-15T01:24:29.415Z,1.80
2023-07-15T01:27:02.164Z,1.80
2023-07-15T01:29:30.049Z,2.00
2023-07-15T01:31:58.899Z,2.10
2023-07-15T01:34:26.485Z,2.30
2023-07-15T01:36:54.405Z,2.20
2023-07-15T01:39:23.362Z,2.30
2023-07-15T01:41:50.931Z,2.20
2023-07-15T01:44:19.044Z,2.50
2023-07-15T01:46:46.774Z,2.60
2023-07-15T01:49:15.715Z,2.60
2023-07-15T01:51:43.850Z,2.80
2023-07-15T01:54:11.386Z,2.80
2023-07-15T01:56:40.984Z,1.90
2023-07-15T01:59:12.189Z,1.90
2023-07-15T02:01:42.468Z,2.70
2023-07-15T02:04:10.330Z,2.60
2023-07-15T02:06:38.407Z,2.60
2023-07-15T02:09:09.490Z,3.00
2023-07-15T02:11:37.257Z,2.80
2023-07-15T02:14:05.563Z,3.00
2023-07-15T02:16:33.345Z,3.00
2023-07-15T02:19:01.132Z,3.00
2023-07-15T02:21:29.746Z,3.00
2023-07-15T02:23:57.499Z,2.80
2023-07-15T02:26:25.102Z,3.00
2023-07-15T02:28:52.978Z,3.30
2023-07-15T02:31:20.634Z,2.90
2023-07-15T02:33:50.099Z,3.10
2023-07-15T02:36:17.774Z,3.10
2023-07-15T02:38:45.585Z,2.70
2023-07-15T02:41:13.620Z,3.30
2023-07-15T02:43:41.488Z,3.10
2023-07-15T02:46:09.477Z,2.80
2023-07-15T02:48:37.075Z,2.90
2023-07-15T02:51:04.956Z,3.00
2023-07-15T02:53:32.882Z,3.10
2023-07-15T02:56:00.659Z,3.30
2023-07-15T02:58:28.640Z,2.90
2023-07-15T03:00:56.260Z,3.10
2023-07-15T03:03:23.866Z,2.70
2023-07-15T03:05:53.173Z,2.90
2023-07-15T03:08:21.711Z,2.80
2023-07-15T03:10:51.053Z,3.00
2023-07-15T03:13:19.396Z,2.80
2023-07-15T03:15:47.528Z,2.70
2023-07-15T03:18:15.225Z,2.70
2023-07-15T03:20:43.127Z,2.60
2023-07-15T03:23:10.750Z,2.70
2023-07-15T03:25:38.463Z,2.60
2023-07-15T03:28:06.387Z,3.00
2023-07-15T03:30:33.982Z,3.10
2023-07-15T03:33:01.787Z,2.80
2023-07-15T03:35:29.760Z,2.80
2023-07-15T03:37:57.461Z,2.50
2023-07-15T03:40:25.276Z,2.50
2023-07-15T03:42:55.234Z,2.20
2023-07-15T03:45:22.956Z,2.20
2023-07-15T03:47:50.575Z,2.30
2023-07-15T03:50:21.435Z,2.20
2023-07-15T03:52:49.042Z,2.10
2023-07-15T03:55:17.141Z,2.60
2023-07-15T03:57:44.929Z,2.30
2023-07-15T04:00:18.934Z,2.40
2023-07-15T04:02:48.000Z,2.60
2023-07-15T04:05:22.047Z,2.60
2023-07-15T04:07:50.207Z,2.20
2023-07-15T04:10:17.947Z,3.30
2023-07-15T04:12:46.019Z,3.30
2023-07-15T04:15:13.961Z,3.10
2023-07-15T04:17:41.533Z,2.90
2023-07-15T04:20:17.068Z,3.20
2023-07-15T04:22:45.284Z,3.10
2023-07-15T04:25:13.345Z,2.40
2023-07-15T04:27:41.176Z,2.70
2023-07-15T04:30:12.754Z,2.90
2023-07-15T04:32:40.931Z,2.70
2023-07-15T04:35:08.867Z,2.40
2023-07-15T04:37:40.423Z,2.00
2023-07-15T04:40:08.746Z,1.70
2023-07-15T04:42:36.520Z,1.90
2023-07-15T04:45:04.899Z,2.10
2023-07-15T04:47:34.522Z,2.50
2023-07-15T04:50:02.814Z,2.70
2023-07-15T04:52:30.738Z,2.70
2023-07-15T04:54:58.889Z,2.50
2023-07-15T04:57:26.648Z,2.40
2023-07-15T04:59:54.447Z,2.40
2023-07-15T05:02:22.714Z,2.50
2023-07-15T05:04:50.588Z,2.30
2023-07-15T05:07:20.719Z,2.10
2023-07-15T05:09:50.634Z,1.70
2023-07-15T05:12:18.669Z,1.70
2023-07-15T05:14:46.380Z,1.60
2023-07-15T05:17:14.117Z,1.70
2023-07-15T05:19:42.044Z,2.10
2023-07-15T05:22:09.941Z,1.60
2023-07-15T05:24:37.730Z,1.50
2023-07-15T05:27:06.153Z,1.60
2023-07-15T05:29:33.725Z,1.60
2023-07-15T05:32:01.455Z,1.50
2023-07-15T05:34:29.908Z,1.50
2023-07-15T05:36:59.001Z,1.50
2023-07-15T05:39:26.830Z,1.90
2023-07-15T05:41:54.571Z,1.40
2023-07-15T05:44:22.431Z,1.40
2023-07-15T05:46:49.997Z,1.50
2023-07-15T05:49:17.753Z,1.80
2023-07-15T05:51:45.608Z,1.60
2023-07-15T05:54:13.254Z,1.70
2023-07-15T05:56:41.116Z,1.80
2023-07-15T05:59:08.725Z,2.40
2023-07-15T06:01:36.458Z,2.70
2023-07-15T06:04:07.622Z,1.70
2023-07-15T06:06:36.429Z,1.90
2023-07-15T06:09:04.175Z,1.70
2023-07-15T06:11:31.960Z,1.60
2023-07-15T06:14:04.324Z,1.40
2023-07-15T06:16:33.210Z,1.60
2023-07-15T06:19:00.846Z,1.40
2023-07-15T06:21:28.450Z,1.50
2023-07-15T06:23:56.367Z,1.30
2023-07-15T06:26:23.939Z,1.50
2023-07-15T06:28:51.502Z,1.60
2023-07-15T06:31:19.660Z,1.30
2023-07-15T06:33:49.891Z,1.60
2023-07-15T06:36:17.615Z,1.40
2023-07-15T06:38:45.628Z,1.80
2023-07-15T06:41:13.413Z,1.70
2023-07-15T06:43:41.240Z,1.80
2023-07-15T06:46:09.614Z,1.60
2023-07-15T06:48:37.417Z,1.50
2023-07-15T06:51:05.025Z,1.50
2023-07-15T06:53:32.942Z,1.40
2023-07-15T06:56:18.107Z,1.70
2023-07-15T06:58:47.559Z,1.20
2023-07-15T07:01:15.821Z,1.60
2023-07-15T07:03:43.763Z,1.50
2023-07-15T07:06:11.722Z,1.20
2023-07-15T07:08:39.424Z,1.40
2023-07-15T07:11:07.258Z,1.40
2023-07-15T07:13:35.068Z,1.30
2023-07-15T07:16:02.669Z,1.30
2023-07-15T07:18:30.382Z,1.30
2023-07-15T07:20:59.901Z,1.50
2023-07-15T07:23:28.065Z,1.40
2023-07-15T07:25:55.716Z,1.40
2023-07-15T07:29:20.945Z,1.20
2023-07-15T07:31:49.068Z,1.30
2023-07-15T07:34:17.061Z,1.20
2023-07-15T07:36:45.574Z,1.30
2023-07-15T07:39:14.235Z,1.20
2023-07-15T07:41:42.573Z,1.40
2023-07-15T07:44:13.179Z,1.20
2023-07-15T07:46:40.932Z,1.20
2023-07-15T07:49:08.668Z,1.20
2023-07-15T07:51:36.432Z,1.40
2023-07-15T07:54:04.025Z,1.00
2023-07-15T07:56:31.896Z,1.30
2023-07-15T07:59:01.371Z,1.50
2023-07-15T08:01:33.006Z,1.20
2023-07-15T08:04:02.034Z,1.60
2023-07-15T08:06:31.201Z,1.30
2023-07-15T08:08:58.952Z,1.20
2023-07-15T08:11:26.808Z,1.40
2023-07-15T08:13:54.695Z,1.20
2023-07-15T08:16:33.023Z,1.10
2023-07-15T08:19:01.755Z,1.30
2023-07-15T08:21:29.473Z,1.20
2023-07-15T08:23:57.763Z,1.50
2023-07-15T08:26:26.223Z,1.30
2023-07-15T08:28:54.472Z,1.20
2023-07-15T08:31:22.589Z,1.50
2023-07-15T08:33:50.363Z,1.40
2023-07-15T08:36:18.169Z,1.40
2023-07-15T08:38:45.883Z,1.40
2023-07-15T08:41:16.145Z,1.40
2023-07-15T08:43:49.747Z,1.20
2023-07-15T08:46:26.659Z,1.20
2023-07-15T08:48:58.971Z,1.30
2023-07-15T08:51:36.331Z,1.20
2023-07-15T08:54:05.233Z,1.20
2023-07-15T08:56:35.777Z,1.20
2023-07-15T08:59:06.761Z,1.10
2023-07-15T09:01:36.727Z,1.20
2023-07-15T09:04:04.973Z,1.20
2023-07-15T09:06:33.813Z,1.10
2023-07-15T09:09:01.493Z,1.00
2023-07-15T09:11:40.814Z,1.30
2023-07-15T09:14:18.239Z,1.30
2023-07-15T09:16:46.260Z,1.40
2023-07-15T09:19:14.210Z,1.20
2023-07-15T09:21:53.239Z,1.50
2023-07-15T09:24:21.311Z,1.30
2023-07-15T09:26:53.066Z,1.40
2023-07-15T09:29:22.481Z,1.50
2023-07-15T09:31:51.307Z,1.60
2023-07-15T09:34:21.599Z,1.30
2023-07-15T09:36:50.266Z,1.60
2023-07-15T09:39:21.254Z,1.50
2023-07-15T09:42:08.704Z,1.60
2023-07-15T09:44:41.936Z,1.50
2023-07-15T09:47:09.983Z,1.50
2023-07-15T09:49:38.074Z,1.30
2023-07-15T09:52:07.250Z,1.60
2023-07-15T09:54:37.316Z,1.40
2023-07-15T09:57:12.107Z,1.20
2023-07-15T09:59:50.045Z,1.50
2023-07-15T10:02:29.983Z,1.20
2023-07-15T10:05:04.814Z,1.30
2023-07-15T10:07:33.848Z,1.40
2023-07-15T10:10:01.927Z,1.30
2023-07-15T10:12:31.070Z,1.60
2023-07-15T10:14:59.468Z,1.50
2023-07-15T10:17:35.416Z,1.20
2023-07-15T10:20:20.536Z,1.30
2023-07-15T10:22:50.637Z,2.20
2023-07-15T10:25:19.861Z,2.00
2023-07-15T10:27:47.645Z,1.60
2023-07-15T10:30:20.006Z,1.60
2023-07-15T10:33:23.751Z,1.40
2023-07-15T10:35:53.695Z,1.40
2023-07-15T10:38:29.255Z,1.40
2023-07-15T10:41:05.940Z,1.30
2023-07-15T10:43:37.852Z,1.40
2023-07-15T10:46:07.856Z,1.30
2023-07-15T10:48:36.679Z,1.30
2023-07-15T10:51:09.365Z,1.30
2023-07-15T10:53:37.917Z,1.40
2023-07-15T10:56:11.502Z,1.20
2023-07-15T10:58:41.765Z,1.30
2023-07-15T11:01:11.808Z,1.30
2023-07-15T11:03:43.141Z,1.10
2023-07-15T11:06:11.996Z,1.10
2023-07-15T11:08:41.438Z,1.20
2023-07-15T11:11:12.056Z,1.40
2023-07-15T11:13:42.200Z,1.40
2023-07-15T11:16:10.119Z,1.20
2023-07-15T11:18:38.430Z,1.30
2023-07-15T11:21:06.555Z,1.20
2023-07-15T11:23:34.909Z,1.10
2023-07-15T11:26:10.489Z,1.20
2023-07-15T11:28:49.895Z,1.30
2023-07-15T11:33:05.445Z,1.40
2023-07-15T11:35:34.726Z,1.40
2023-07-15T11:38:11.873Z,1.10
2023-07-15T11:41:00.860Z,1.30
2023-07-15T11:43:30.293Z,1.30
2023-07-15T11:45:59.386Z,1.20
2023-07-15T11:48:35.127Z,1.20
2023-07-15T11:51:08.060Z,1.30
2023-07-15T11:53:38.393Z,1.30
2023-07-15T11:56:09.772Z,1.20
2023-07-15T11:58:57.638Z,1.40
2023-07-15T12:01:27.057Z,1.10
2023-07-15T12:03:55.577Z,1.20
2023-07-15T12:06:26.237Z,1.20
2023-07-15T12:09:10.861Z,1.30
2023-07-15T12:11:39.834Z,1.10
2023-07-15T12:14:11.442Z,1.00
2023-07-15T12:16:40.404Z,1.10
2023-07-15T12:19:18.997Z,1.00
2023-07-15T12:21:46.852Z,1.20
2023-07-15T12:24:14.567Z,1.20
2023-07-15T12:26:42.264Z,1.10
2023-07-15T12:29:10.539Z,1.30
2023-07-15T12:31:38.326Z,1.40
2023-07-15T12:34:06.015Z,1.30
2023-07-15T12:36:33.694Z,1.20
2023-07-15T12:39:01.470Z,1.10
2023-07-15T12:41:29.277Z,1.30
2023-07-15T12:43:56.937Z,1.10
2023-07-15T12:46:24.693Z,0.90
2023-07-15T12:48:52.874Z,1.10
2023-07-15T12:51:20.805Z,1.00
2023-07-15T12:53:48.709Z,1.10
2023-07-15T12:56:16.762Z,1.20
2023-07-15T12:58:44.544Z,1.20
2023-07-15T13:01:12.314Z,1.10
2023-07-15T13:03:40.143Z,1.10
2023-07-15T13:06:07.868Z,1.00
2023-07-15T13:08:38.413Z,1.10
2023-07-15T13:11:07.336Z,1.10
2023-07-15T13:13:35.000Z,1.10
2023-07-15T13:16:03.076Z,1.10
2023-07-15T13:18:30.711Z,1.10
2023-07-15T13:20:58.353Z,1.20
2023-07-15T13:23:26.702Z,1.20
2023-07-15T13:25:56.454Z,0.90
2023-07-15T13:28:24.276Z,1.00
2023-07-15T13:30:52.174Z,1.00
2023-07-15T13:33:19.768Z,0.80
2023-07-15T13:35:48.615Z,1.00
2023-07-15T13:38:16.529Z,0.90
2023-07-15T13:40:44.120Z,1.00
2023-07-15T13:43:11.677Z,0.90
2023-07-15T13:45:39.707Z,1.00
2023-07-15T13:48:07.838Z,1.00
2023-07-15T13:50:35.454Z,1.00
2023-07-15T13:53:03.418Z,1.00
2023-07-15T13:55:31.014Z,2.00
2023-07-15T13:57:58.795Z,1.30
2023-07-15T14:00:26.826Z,1.10
2023-07-15T14:02:54.387Z,1.20
2023-07-15T14:05:22.102Z,1.10
2023-07-15T14:07:52.112Z,1.20
2023-07-15T14:10:19.720Z,1.20
2023-07-15T14:12:47.364Z,1.10
2023-07-15T14:15:15.360Z,1.10
2023-07-15T14:17:42.957Z,1.00
2023-07-15T14:20:11.008Z,1.30
2023-07-15T14:22:48.456Z,1.00
2023-07-15T14:25:19.434Z,1.00
2023-07-15T14:27:47.587Z,0.90
2023-07-15T14:30:15.575Z,1.20
2023-07-15T14:32:43.206Z,1.10
2023-07-15T14:35:11.194Z,1.20
2023-07-15T14:37:38.812Z,1.30
2023-07-15T14:40:07.813Z,1.10
2023-07-15T14:42:35.619Z,1.20
2023-07-15T14:45:03.344Z,1.10
2023-07-15T14:47:34.683Z,1.20
2023-07-15T14:50:02.885Z,1.20
2023-07-15T14:52:30.595Z,1.30
2023-07-15T14:54:58.289Z,1.20
2023-07-15T14:57:26.236Z,1.10
2023-07-15T14:59:53.799Z,1.20
2023-07-15T15:02:21.628Z,1.20
2023-07-15T15:04:49.754Z,1.40
2023-07-15T15:07:17.376Z,1.10
2023-07-15T15:09:45.021Z,1.10
2023-07-15T15:12:12.933Z,1.00
2023-07-15T15:14:40.519Z,1.20
2023-07-15T15:17:08.826Z,1.70
2023-07-15T15:19:36.797Z,1.30
2023-07-15T15:22:04.623Z,1.50
2023-07-15T15:24:32.240Z,1.10
2023-07-15T15:27:01.043Z,1.20
2023-07-15T15:29:28.702Z,1.20
2023-07-15T15:31:56.969Z,1.10
2023-07-15T15:34:25.226Z,1.20
2023-07-15T15:36:52.936Z,1.00
2023-07-15T15:39:20.499Z,1.40
2023-07-15T15:41:48.848Z,1.60
2023-07-15T15:44:16.508Z,1.20
2023-07-15T15:46:44.714Z,1.20
2023-07-15T15:49:12.652Z,1.10
2023-07-15T15:51:40.221Z,1.30
2023-07-15T15:54:13.686Z,1.60
2023-07-15T15:56:47.464Z,1.50
2023-07-15T15:59:52.771Z,2.30
2023-07-15T16:02:21.359Z,1.80
2023-07-15T16:05:28.248Z,1.80
2023-07-15T16:07:56.921Z,1.60
2023-07-15T16:10:25.069Z,1.40
2023-07-15T16:12:53.515Z,1.50
2023-07-15T16:15:24.284Z,1.30
2023-07-15T16:17:52.310Z,1.20
2023-07-15T16:20:20.755Z,1.20
2023-07-15T16:22:48.875Z,1.30
2023-07-15T16:25:16.936Z,1.10
2023-07-15T16:27:46.048Z,1.40
2023-07-15T16:30:13.885Z,1.40
2023-07-15T16:32:41.466Z,1.40
2023-07-15T16:35:09.732Z,1.30
2023-07-15T16:37:37.597Z,1.10
2023-07-15T16:40:05.882Z,2.30
2023-07-15T16:42:33.704Z,2.80
2023-07-15T16:45:01.322Z,4.80
2023-07-15T16:47:28.930Z,2.90
2023-07-15T16:49:56.771Z,2.90
2023-07-15T16:52:24.436Z,3.60
2023-07-15T16:54:52.127Z,4.70
2023-07-15T16:57:19.991Z,3.60
2023-07-15T16:59:47.732Z,4.70
2023-07-15T17:02:15.672Z,3.70
2023-07-15T17:04:43.521Z,2.00
2023-07-15T17:07:11.297Z,2.10
2023-07-15T17:09:38.888Z,2.00
2023-07-15T17:12:13.213Z,1.80
2023-07-15T17:14:41.144Z,1.80
2023-07-15T17:17:09.077Z,2.20
2023-07-15T17:19:36.820Z,2.10
2023-07-15T17:22:04.562Z,1.80
2023-07-15T17:24:32.182Z,1.80
2023-07-15T17:26:59.889Z,1.70
2023-07-15T17:29:27.698Z,2.00
2023-07-15T17:31:55.649Z,1.80
2023-07-15T17:34:23.841Z,1.70
2023-07-15T17:36:51.644Z,1.70
2023-07-15T17:39:19.434Z,1.60
2023-07-15T17:41:46.999Z,1.60
2023-07-15T17:44:14.791Z,1.80
2023-07-15T17:46:42.509Z,1.70
2023-07-15T17:49:10.096Z,1.80
2023-07-15T17:51:37.866Z,1.60
2023-07-15T17:54:05.509Z,1.90
2023-07-15T17:56:33.137Z,1.70
2023-07-15T17:59:00.857Z,3.40
2023-07-15T18:01:28.503Z,3.20
2023-07-15T18:03:56.106Z,2.20
2023-07-15T18:06:23.977Z,1.70
2023-07-15T18:08:51.704Z,1.80
2023-07-15T18:11:19.285Z,1.50
2023-07-15T18:13:47.087Z,1.50
2023-07-15T18:16:14.890Z,1.50
2023-07-15T18:18:42.517Z,1.80
2023-07-15T18:21:10.273Z,1.90
2023-07-15T18:23:41.204Z,2.00
2023-07-15T18:26:08.805Z,2.40
2023-07-15T18:28:37.400Z,2.40
2023-07-15T18:31:05.342Z,2.60
2023-07-15T18:33:33.275Z,2.10
2023-07-15T18:36:01.250Z,1.60
2023-07-15T18:38:29.009Z,1.90
2023-07-15T18:40:56.894Z,2.20
2023-07-15T18:43:24.823Z,2.10
2023-07-15T18:45:52.475Z,1.70
2023-07-15T18:48:20.126Z,2.20
2023-07-15T18:50:48.517Z,3.20
2023-07-15T18:53:16.270Z,3.20
2023-07-15T18:55:43.997Z,3.20
2023-07-15T18:58:11.741Z,2.10
2023-07-15T19:00:39.471Z,2.30
2023-07-15T19:03:07.209Z,2.30
2023-07-15T19:05:35.295Z,2.20
2023-07-15T19:08:03.058Z,1.90
2023-07-15T19:10:30.796Z,2.70
2023-07-15T19:12:58.430Z,2.50
2023-07-15T19:15:26.344Z,2.10
2023-07-15T19:17:53.966Z,2.20
2023-07-15T19:20:22.299Z,2.00
2023-07-15T19:22:50.173Z,1.70
2023-07-15T19:25:18.747Z,1.90
2023-07-15T19:27:46.569Z,1.80
2023-07-15T19:30:14.445Z,2.40
2023-07-15T19:32:42.049Z,1.60
2023-07-15T19:35:09.800Z,2.00
2023-07-15T19:37:37.569Z,2.10
2023-07-15T19:40:05.932Z,2.20
2023-07-15T19:42:33.949Z,2.00
2023-07-15T19:45:01.769Z,2.30
2023-07-15T19:47:29.326Z,2.30
2023-07-15T19:49:57.062Z,1.90
2023-07-15T19:52:24.847Z,2.00
2023-07-15T19:54:52.442Z,1.80
2023-07-15T19:57:20.159Z,1.90
2023-07-15T19:59:47.936Z,1.90
2023-07-15T20:02:15.661Z,2.50
2023-07-15T20:04:43.752Z,2.40
2023-07-15T20:07:11.376Z,2.00
2023-07-15T20:09:38.966Z,2.20
2023-07-15T20:12:07.430Z,1.90
2023-07-15T20:14:35.167Z,2.30
2023-07-15T20:17:02.789Z,2.00
2023-07-15T20:19:31.425Z,1.60
2023-07-15T20:21:59.522Z,1.70
2023-07-15T20:24:27.228Z,1.80
2023-07-15T20:26:55.288Z,1.70
2023-07-15T20:29:23.281Z,2.10
2023-07-15T20:31:50.915Z,2.00
2023-07-15T20:34:18.823Z,2.10
2023-07-15T20:36:46.451Z,1.90
2023-07-15T20:39:15.193Z,1.70
2023-07-15T20:41:43.454Z,1.60
2023-07-15T20:44:11.292Z,1.70
2023-07-15T20:46:39.195Z,1.60
2023-07-15T20:49:06.992Z,1.70
2023-07-15T20:51:34.816Z,2.30
2023-07-15T20:54:02.435Z,2.70
2023-07-15T20:56:30.283Z,2.40
2023-07-15T20:58:58.305Z,2.00
2023-07-15T21:01:26.015Z,1.90
2023-07-15T21:03:54.016Z,2.30
2023-07-15T21:06:21.912Z,1.60
2023-07-15T21:08:49.626Z,1.80
2023-07-15T21:11:19.153Z,1.90
2023-07-15T21:13:47.109Z,2.00
2023-07-15T21:16:17.841Z,2.00
2023-07-15T21:18:47.566Z,2.10
2023-07-15T21:21:15.818Z,2.10
2023-07-15T21:23:44.104Z,2.30
2023-07-15T21:26:12.404Z,2.10
2023-07-15T21:28:41.614Z,2.10
2023-07-15T21:31:09.658Z,2.00
2023-07-15T21:33:37.777Z,2.10
2023-07-15T21:36:05.691Z,2.10
2023-07-15T21:38:33.588Z,1.80
2023-07-15T21:41:01.259Z,2.40
2023-07-15T21:43:29.727Z,2.00
2023-07-15T21:45:57.856Z,2.00
2023-07-15T21:48:25.629Z,2.00
2023-07-15T21:50:53.558Z,2.00
2023-07-15T21:53:21.375Z,2.20
2023-07-15T21:55:48.999Z,1.90
2023-07-15T21:58:17.354Z,2.10
2023-07-15T22:00:44.999Z,2.00
2023-07-15T22:03:13.038Z,1.80
2023-07-15T22:05:47.197Z,1.80
2023-07-15T22:08:16.417Z,1.80
2023-07-15T22:10:44.107Z,1.60
2023-07-15T22:13:11.727Z,1.80
2023-07-15T22:15:39.607Z,1.80
2023-07-15T22:18:07.481Z,1.80
2023-07-15T22:20:35.123Z,1.80
2023-07-15T22:23:03.118Z,2.50
2023-07-15T22:25:31.150Z,2.00
2023-07-15T22:27:59.312Z,1.70
2023-07-15T22:30:27.534Z,1.90
2023-07-15T22:32:55.390Z,1.80
2023-07-15T22:35:23.278Z,1.90
2023-07-15T22:37:51.014Z,1.70
2023-07-15T22:40:18.648Z,1.90
2023-07-15T22:42:46.457Z,1.80
2023-07-15T22:45:14.763Z,2.10
2023-07-15T22:47:42.419Z,1.70
2023-07-15T22:50:10.293Z,1.80
2023-07-15T22:52:38.810Z,2.10
2023-07-15T22:55:09.548Z,1.80
2023-07-15T22:57:37.232Z,1.60
2023-07-15T23:00:06.110Z,1.60
2023-07-15T23:02:34.048Z,1.80
2023-07-15T23:05:03.155Z,1.80
2023-07-15T23:07:30.859Z,1.60
2023-07-15T23:09:58.442Z,1.50
2023-07-15T23:12:26.193Z,1.70
2023-07-15T23:14:53.762Z,2.00
2023-07-15T23:17:22.699Z,1.70
2023-07-15T23:19:50.513Z,1.50
2023-07-15T23:22:18.250Z,1.70
2023-07-15T23:24:45.915Z,1.90
2023-07-15T23:27:15.631Z,1.90
2023-07-15T23:29:43.274Z,1.90
2023-07-15T23:32:11.226Z,1.80
2023-07-15T23:34:39.275Z,1.80
2023-07-15T23:37:06.933Z,2.00
2023-07-15T23:39:34.619Z,2.10
2023-07-15T23:42:02.483Z,2.10
2023-07-15T23:44:30.133Z,2.10
2023-07-15T23:46:57.916Z,2.10
2023-07-15T23:49:25.716Z,2.10
2023-07-15T23:51:53.345Z,2.30
2023-07-15T23:54:21.480Z,2.00
2023-07-15T23:56:49.292Z,1.80
2023-07-15T23:59:17.558Z,1.90
